Main page
METAR-TAF:

METAR-TAF

Airports :

Sliač Airport

Banská Bystrica, Slovakia

latitude: 48-38-17N, longitude: 019-08-03E, elevation: 318 m

Current weather observation

The report was made 19 minutes ago, at 22:30 UTC
Calm wind
Temperature 3°C
Humidity 93%
Pressure 1015 hPa
Visibility: 3000 m
Overcast at a height of 1400 ft
drizzle, mist

METAR: LZSL 202230Z 00000KT 3000 DZ BR OVC014 03/02 Q1015

Time: 23:49 (22:49 UTC)

Forecast

The report was made 2 hours and 49 minutes ago, at 20:00 UTC
Forecast valid from 20 at 21 UTC to 21 at 06 UTC
Wind 2 kt from variable directions
Visibility: 6000 m
Overcast at a height of 2000 ft
Becoming
from 20 at 22 UTC to 21 at 00 UTC
Visibility: 4000 m
Scattered clouds at a height of 1200 ft
Overcast at a height of 2000 ft
mist
Probability 40% :
Temporary
from 21 at 00 UTC to 21 at 06 UTC
Visibility: 2500 m
Overcast at a height of 700 ft
light drizzle

TAF: LZSL 202000Z 2021/2106 VRB02KT 6000 OVC020 BECMG 2022/2100 4000 BR SCT012 OVC020 PROB40 TEMPO 2100/2106 2500 -DZ OVC007

Weather observations and forecasts of more than 4000 airports (METAR and TAF reports).

The available stations are represented by yellow and red dots on the map.

Hover mouse over dot to see the name of the station.

Then click to see weather observations and forecasts.

To change the map : click on the green buttons with a black cross to zoom in, on the green button with a dash to zoom out, or on the green arrows for adjacent maps.


METAR-TAF: